Time;durP1;ratioP1;P1;durP2;ratioP2;P2;SDS_P1;SDS_P2;PMS_P1;PMS_P2;Temp;Humidity;BMP_temperature;BMP_pressure;BME280_temperature;BME280_humidity;BME280_pressure;Samples;Min_cycle;Max_cycle;Signal;HPM_P1;HPM_P2
2022/10/30 00:00:10;;;;;;;21.20;14.20;;;;;;;16.22;62.87;99511.45;225759;1246;141454;-65
2022/10/30 00:05:35;;;;;;;19.50;14.30;;;;;;;16.22;62.90;99509.50;226611;1237;139964;-61
2022/10/30 00:10:40;;;;;;;23.00;15.10;;;;;;;16.25;63.31;99509.60;226865;1237;139379;-60
2022/10/30 00:16:04;;;;;;;20.40;14.10;;;;;;;16.22;62.89;99511.47;225799;1250;140192;-61
2022/10/30 00:21:11;;;;;;;22.50;15.10;;;;;;;16.15;63.07;99510.20;225664;1241;139312;-60
2022/10/30 00:26:20;;;;;;;24.30;15.50;;;;;;;16.11;63.03;99514.99;226266;1237;140190;-60
2022/10/30 00:31:23;;;;;;;22.10;14.90;;;;;;;16.06;63.12;99510.53;225455;1245;140641;-63
2022/10/30 00:36:26;;;;;;;22.50;13.50;;;;;;;16.01;63.21;99509.50;225665;1244;140429;-62
2022/10/30 00:41:29;;;;;;;22.50;14.00;;;;;;;16.04;63.47;99507.28;225414;1248;140719;-68
2022/10/30 00:46:36;;;;;;;20.80;14.50;;;;;;;16.06;63.28;99511.58;225537;1245;140717;-64
2022/10/30 00:51:46;;;;;;;18.30;13.10;;;;;;;16.07;63.30;99510.10;225435;1247;139634;-73
2022/10/30 00:56:50;;;;;;;20.50;13.20;;;;;;;16.06;63.22;99509.30;225625;1246;140350;-71
2022/10/30 01:01:53;;;;;;;22.10;13.50;;;;;;;16.04;63.43;99504.77;225482;1251;140274;-65
2022/10/30 01:06:59;;;;;;;19.30;13.40;;;;;;;16.00;63.54;99495.13;225420;1245;140137;-67
2022/10/30 01:12:02;;;;;;;18.80;12.70;;;;;;;16.00;63.44;99484.00;225372;1242;140275;-71
2022/10/30 01:17:20;;;;;;;18.50;12.00;;;;;;;16.01;63.38;99476.02;225462;1244;163619;-69
2022/10/30 01:23:01;;;;;;;19.80;12.80;;;;;;;16.05;63.81;99485.77;225598;1244;140883;-72
2022/10/30 01:28:29;;;;;;;21.70;13.20;;;;;;;16.06;63.78;99495.15;226519;1243;140333;-64
2022/10/30 01:33:56;;;;;;;19.20;12.90;;;;;;;16.04;63.53;99481.37;226766;1237;139824;-65
2022/10/30 01:39:25;;;;;;;19.40;12.60;;;;;;;16.01;63.65;99473.55;225911;1239;139755;-70
2022/10/30 01:44:32;;;;;;;21.90;13.80;;;;;;;15.93;63.55;99477.21;225222;1248;140292;-64
2022/10/30 01:50:02;;;;;;;23.50;14.70;;;;;;;15.84;63.62;99470.04;225246;1243;140317;-61
2022/10/30 01:55:15;;;;;;;21.70;14.40;;;;;;;15.82;63.72;99474.08;225265;1250;140936;-66
2022/10/30 02:00:19;;;;;;;21.10;14.60;;;;;;;15.79;63.77;99471.63;225396;1242;141045;-69
2022/10/30 02:05:34;;;;;;;22.60;15.00;;;;;;;15.77;63.91;99483.81;225291;1242;140670;-67
2022/10/30 02:10:37;;;;;;;21.20;14.90;;;;;;;15.76;63.85;99475.66;225305;1246;139945;-62
2022/10/30 02:15:42;;;;;;;23.30;15.50;;;;;;;15.71;63.95;99478.86;225505;1255;140823;-68
2022/10/30 02:20:45;;;;;;;21.00;13.90;;;;;;;15.70;63.83;99460.35;226423;1239;139658;-70
2022/10/30 02:25:48;;;;;;;20.30;14.80;;;;;;;15.70;63.91;99460.59;225437;1245;140691;-71
2022/10/30 02:30:52;;;;;;;24.70;15.60;;;;;;;15.68;64.00;99462.49;226441;1241;140776;-66
2022/10/30 02:35:54;;;;;;;21.60;14.80;;;;;;;15.65;63.95;99484.46;225718;1244;140739;-64
2022/10/30 02:40:57;;;;;;;22.80;15.80;;;;;;;15.58;63.84;99501.44;225447;1241;140195;-69
2022/10/30 02:46:01;;;;;;;27.60;15.60;;;;;;;15.56;64.02;99495.55;226721;1229;139333;-62
2022/10/30 02:51:04;;;;;;;23.70;15.50;;;;;;;15.49;64.17;99488.59;225454;1241;139368;-64
2022/10/30 02:56:10;;;;;;;23.20;14.60;;;;;;;15.44;64.06;99488.60;225496;1240;139483;-70
2022/10/30 03:01:17;;;;;;;22.90;14.40;;;;;;;15.44;64.25;99487.20;225742;1244;140826;-66
2022/10/30 03:06:20;;;;;;;23.70;15.10;;;;;;;15.46;64.29;99489.15;226495;1236;140476;-66
2022/10/30 03:11:25;;;;;;;24.10;14.80;;;;;;;15.46;64.41;99485.96;226482;1235;140337;-67
2022/10/30 03:16:29;;;;;;;24.00;15.00;;;;;;;15.39;64.24;99470.36;225694;1241;140516;-66
2022/10/30 03:21:32;;;;;;;21.70;14.30;;;;;;;15.34;64.42;99460.39;225706;1244;139665;-63
2022/10/30 03:26:35;;;;;;;24.80;15.30;;;;;;;15.29;64.41;99456.25;225476;1241;140054;-64
2022/10/30 03:31:40;;;;;;;26.60;15.40;;;;;;;15.23;64.51;99471.36;226427;1245;140403;-66
2022/10/30 03:37:04;;;;;;;22.60;14.60;;;;;;;15.24;64.56;99474.17;226547;1237;141291;-68
2022/10/30 03:42:07;;;;;;;20.70;14.30;;;;;;;15.26;64.68;99473.66;225426;1244;139921;-69
2022/10/30 03:47:10;;;;;;;21.90;15.30;;;;;;;15.28;64.68;99479.23;225580;1242;140122;-74
2022/10/30 03:52:20;;;;;;;23.70;15.20;;;;;;;15.25;64.50;99471.94;224962;1240;140122;-66
2022/10/30 03:57:24;;;;;;;22.90;14.70;;;;;;;15.21;64.60;99466.02;225660;1240;139106;-69
2022/10/30 04:02:52;;;;;;;22.20;15.20;;;;;;;15.13;64.46;99468.88;225540;1248;139716;-68
2022/10/30 04:07:58;;;;;;;21.00;14.40;;;;;;;15.09;64.49;99466.85;226410;1230;139482;-64
2022/10/30 04:13:04;;;;;;;22.50;14.20;;;;;;;15.08;64.45;99468.21;225423;1246;140979;-66
2022/10/30 04:18:12;;;;;;;19.10;13.80;;;;;;;15.10;64.52;99463.02;225520;1241;139857;-66
2022/10/30 04:23:18;;;;;;;21.50;14.80;;;;;;;15.08;64.64;99467.49;225566;1240;139602;-66
2022/10/30 04:28:21;;;;;;;21.00;15.40;;;;;;;15.02;64.55;99461.29;225546;1246;140419;-68
2022/10/30 04:33:24;;;;;;;21.10;14.90;;;;;;;15.02;64.77;99464.69;225799;1245;139794;-68
2022/10/30 04:38:27;;;;;;;18.40;14.50;;;;;;;15.02;64.81;99467.05;225685;1244;139750;-65
2022/10/30 04:43:30;;;;;;;25.70;15.30;;;;;;;15.00;64.70;99472.34;225451;1247;139467;-63
2022/10/30 04:48:35;;;;;;;17.20;12.60;;;;;;;15.02;64.73;99461.85;225515;1247;139937;-64
2022/10/30 04:53:38;;;;;;;20.90;13.90;;;;;;;15.02;64.70;99459.34;225725;1245;140091;-62
2022/10/30 04:58:42;;;;;;;21.40;14.60;;;;;;;14.97;64.59;99463.34;226512;1237;140056;-67
2022/10/30 05:03:45;;;;;;;18.10;13.90;;;;;;;14.95;64.75;99468.64;225826;1244;139230;-64
2022/10/30 05:08:53;;;;;;;20.60;13.70;;;;;;;14.89;64.65;99472.61;225372;1247;139219;-66
2022/10/30 05:14:17;;;;;;;21.10;14.80;;;;;;;14.82;64.70;99472.92;226595;1237;139245;-67
2022/10/30 05:19:20;;;;;;;20.60;13.50;;;;;;;14.78;64.73;99471.25;225572;1244;139502;-75
2022/10/30 05:24:27;;;;;;;25.10;14.40;;;;;;;14.73;64.47;99472.55;226574;1237;143153;-70
2022/10/30 05:29:30;;;;;;;24.80;14.70;;;;;;;14.71;64.71;99479.11;225294;1247;139510;-71
2022/10/30 05:34:33;;;;;;;21.20;14.10;;;;;;;14.73;64.85;99473.43;225246;1248;140020;-70
2022/10/30 05:39:37;;;;;;;23.70;14.80;;;;;;;14.71;64.94;99462.48;225521;1244;139574;-66
2022/10/30 05:44:46;;;;;;;20.10;14.20;;;;;;;14.74;65.11;99462.46;226521;1237;139257;-72
2022/10/30 05:50:04;;;;;;;18.80;14.20;;;;;;;14.73;65.16;99465.41;225286;1244;139320;-77
2022/10/30 05:55:07;;;;;;;19.90;14.30;;;;;;;14.74;65.10;99476.55;226720;1244;139245;-69
2022/10/30 06:00:25;;;;;;;25.70;15.00;;;;;;;14.74;64.98;99488.02;225573;1229;139675;-72
2022/10/30 06:05:30;;;;;;;21.50;14.30;;;;;;;14.74;65.14;99497.13;225623;1244;139819;-74
2022/10/30 06:10:35;;;;;;;20.60;15.30;;;;;;;14.73;65.35;99496.29;225729;1238;140723;-73
2022/10/30 06:15:48;;;;;;;22.00;15.20;;;;;;;14.74;65.33;99491.75;226647;1237;140072;-72
2022/10/30 06:20:54;;;;;;;20.30;14.90;;;;;;;14.74;65.40;99487.13;226568;1235;140158;-71
2022/10/30 06:26:00;;;;;;;100.20;71.70;;;;;;;14.72;65.36;99486.17;226581;1231;139549;-69
2022/10/30 06:31:13;;;;;;;23.20;15.00;;;;;;;14.73;65.26;99479.84;225120;1222;141867;-69
2022/10/30 06:36:16;;;;;;;21.20;15.20;;;;;;;14.76;65.43;99482.86;226558;1234;140955;-67
2022/10/30 06:41:19;;;;;;;20.80;15.90;;;;;;;14.76;65.55;99484.52;225448;1237;139278;-61
2022/10/30 06:47:04;;;;;;;57.20;41.40;;;;;;;14.73;65.53;99489.30;226504;1240;139863;-63
2022/10/30 06:52:08;;;;;;;25.80;16.30;;;;;;;14.71;65.67;99491.61;226649;1230;139784;-66
2022/10/30 06:57:13;;;;;;;21.70;14.60;;;;;;;14.70;65.67;99497.25;225517;1231;139945;-68
2022/10/30 07:02:34;;;;;;;23.00;14.40;;;;;;;14.79;65.82;99495.54;225654;1244;140029;-61
2022/10/30 07:07:42;;;;;;;23.20;15.50;;;;;;;14.88;65.84;99496.08;225712;1237;139344;-62
2022/10/30 07:12:52;;;;;;;23.90;15.30;;;;;;;14.96;65.98;99500.02;225582;1237;139131;-60
2022/10/30 07:18:17;;;;;;;22.00;14.80;;;;;;;15.00;65.79;99490.56;226530;1237;140463;-62
2022/10/30 07:23:21;;;;;;;20.20;14.30;;;;;;;15.04;65.67;99479.24;225550;1244;140010;-66
2022/10/30 07:28:26;;;;;;;182.80;124.00;;;;;;;15.04;65.64;99481.55;226264;1234;139980;-67
2022/10/30 07:33:47;;;;;;;26.10;16.60;;;;;;;15.09;65.56;99485.44;225737;1237;141755;-65
2022/10/30 07:39:13;;;;;;;20.90;13.00;;;;;;;15.20;65.71;99494.70;226802;1236;139580;-66
2022/10/30 07:44:29;;;;;;;73.80;51.60;;;;;;;15.28;65.59;99511.36;226549;1238;142781;-68
2022/10/30 07:49:51;;;;;;;21.40;13.90;;;;;;;15.38;65.69;99513.69;225682;1244;139756;-68
2022/10/30 07:54:54;;;;;;;20.30;13.00;;;;;;;15.48;65.53;99508.14;225525;1243;139735;-65
2022/10/30 08:00:21;;;;;;;20.30;13.50;;;;;;;15.55;65.48;99496.70;226457;1229;140151;-67
2022/10/30 08:05:30;;;;;;;19.70;12.10;;;;;;;15.62;65.48;99493.13;225344;1247;139431;-67
2022/10/30 08:10:42;;;;;;;17.00;11.60;;;;;;;15.75;65.29;99497.00;226450;1236;140615;-67
2022/10/30 08:15:45;;;;;;;17.50;12.60;;;;;;;15.87;65.20;99496.61;225554;1244;139593;-67
2022/10/30 08:20:49;;;;;;;17.50;11.70;;;;;;;16.00;65.27;99494.23;226529;1236;139876;-66
2022/10/30 08:25:59;;;;;;;54.00;43.10;;;;;;;16.09;65.14;99486.17;225325;1243;140715;-68
2022/10/30 08:31:04;;;;;;;20.80;14.30;;;;;;;16.19;65.19;99478.92;225369;1236;139899;-63
2022/10/30 08:36:34;;;;;;;20.70;12.70;;;;;;;16.29;65.16;99472.59;225275;1249;139700;-71
2022/10/30 08:41:37;;;;;;;22.80;12.50;;;;;;;16.45;65.05;99472.98;226560;1236;141020;-71
2022/10/30 08:46:40;;;;;;;17.90;11.90;;;;;;;16.63;65.01;99473.86;225302;1240;140580;-72
2022/10/30 08:51:44;;;;;;;18.50;12.00;;;;;;;16.77;64.81;99469.52;225573;1246;139497;-69
2022/10/30 08:56:48;;;;;;;20.70;12.20;;;;;;;16.90;64.56;99459.48;225393;1245;140396;-67
2022/10/30 09:01:51;;;;;;;20.50;11.20;;;;;;;17.03;64.42;99459.69;226551;1229;139619;-70
2022/10/30 09:06:54;;;;;;;16.90;11.00;;;;;;;17.15;64.33;99455.97;225759;1245;139937;-67
2022/10/30 09:12:17;;;;;;;21.80;9.30;;;;;;;17.26;64.18;99450.43;225628;1243;138998;-71
2022/10/30 09:17:21;;;;;;;45.30;30.60;;;;;;;17.41;63.89;99447.56;226519;1230;140167;-72
2022/10/30 09:22:26;;;;;;;19.00;10.10;;;;;;;17.55;63.78;99446.58;225646;1239;139902;-71
2022/10/30 09:27:29;;;;;;;16.90;9.00;;;;;;;17.65;63.45;99445.87;226698;1244;140151;-66
2022/10/30 09:32:36;;;;;;;21.50;9.20;;;;;;;17.69;63.13;99441.19;225549;1239;138790;-67
2022/10/30 09:37:43;;;;;;;12.90;8.60;;;;;;;17.77;63.13;99433.75;225538;1252;139709;-72
2022/10/30 09:42:51;;;;;;;15.80;9.30;;;;;;;17.89;62.95;99430.21;225313;1232;140018;-66
2022/10/30 09:48:21;;;;;;;14.60;8.30;;;;;;;18.01;62.74;99434.95;226258;1239;139195;-65
2022/10/30 09:53:53;;;;;;;26.90;18.30;;;;;;;18.13;62.57;99437.85;225413;1245;140057;-70
2022/10/30 09:59:25;;;;;;;15.70;8.40;;;;;;;18.23;62.44;99437.56;225637;1240;140328;-69
2022/10/30 10:04:41;;;;;;;14.10;8.20;;;;;;;18.41;62.24;99438.85;225708;1241;139393;-70
2022/10/30 10:09:51;;;;;;;15.90;7.80;;;;;;;18.59;62.12;99435.92;225686;1245;139641;-70
2022/10/30 10:15:56;;;;;;;15.40;8.60;;;;;;;18.71;61.79;99434.02;225407;1240;139672;-69
2022/10/30 10:21:08;;;;;;;16.20;8.10;;;;;;;18.86;61.53;99428.74;225539;1243;142071;-69
2022/10/30 10:26:23;;;;;;;13.80;7.90;;;;;;;19.02;61.36;99426.02;225566;1244;140540;-70
2022/10/30 10:31:46;;;;;;;;;;;;;;;19.20;61.14;99417.02;226489;1237;139252;-70
2022/10/30 10:36:52;;;;;;;13.30;7.90;;;;;;;19.34;60.80;99412.45;225623;1246;125075;-72
2022/10/30 10:42:17;;;;;;;11.90;7.30;;;;;;;19.44;60.64;99408.89;225366;1239;139129;-73
2022/10/30 10:47:37;;;;;;;12.70;7.50;;;;;;;19.53;60.46;99416.95;225669;1239;139471;-68
2022/10/30 10:52:49;;;;;;;130.40;91.10;;;;;;;19.64;60.18;99424.11;226480;1237;139199;-71
2022/10/30 10:57:57;;;;;;;24.20;15.10;;;;;;;19.76;60.11;99420.30;225696;1247;139633;-71
2022/10/30 11:03:10;;;;;;;13.10;7.40;;;;;;;19.88;59.84;99416.66;226705;1236;139217;-66
2022/10/30 11:08:16;;;;;;;12.40;7.70;;;;;;;19.99;59.61;99415.39;226568;1223;140772;-69
2022/10/30 11:13:22;;;;;;;14.90;6.70;;;;;;;20.11;59.58;99406.00;226600;1236;139159;-66
2022/10/30 11:18:25;;;;;;;13.30;7.10;;;;;;;20.18;59.16;99399.38;226379;1232;139502;-66
2022/10/30 11:23:42;;;;;;;13.10;7.10;;;;;;;20.21;58.79;99398.91;225405;1243;139154;-67
2022/10/30 11:28:48;;;;;;;12.40;7.10;;;;;;;20.24;58.65;99401.09;225183;1246;139113;-69
2022/10/30 11:33:51;;;;;;;13.70;7.10;;;;;;;20.34;58.68;99408.29;225510;1245;139754;-69
2022/10/30 11:39:08;;;;;;;14.70;6.90;;;;;;;20.45;58.43;99413.88;225531;1240;139393;-69
2022/10/30 11:44:11;;;;;;;19.00;9.00;;;;;;;20.54;58.35;99409.59;225588;1243;140756;-71
2022/10/30 11:49:49;;;;;;;15.70;7.10;;;;;;;20.70;58.14;99405.73;226452;1240;138952;-71
2022/10/30 11:54:57;;;;;;;12.30;6.80;;;;;;;20.88;57.94;99401.06;225308;1244;139680;-66
2022/10/30 12:00:04;;;;;;;12.90;7.00;;;;;;;21.03;57.73;99396.77;226346;1237;139504;-67
2022/10/30 12:05:34;;;;;;;17.10;6.60;;;;;;;21.17;57.60;99391.29;225446;1244;140376;-66
2022/10/30 12:10:51;;;;;;;16.30;6.20;;;;;;;21.29;57.32;99384.64;226546;1238;139745;-66
2022/10/30 12:16:17;;;;;;;10.80;6.60;;;;;;;21.39;56.87;99380.42;226534;1236;139119;-66
2022/10/30 12:21:20;;;;;;;17.30;6.70;;;;;;;21.44;56.73;99382.20;226711;1236;139762;-67
2022/10/30 12:26:24;;;;;;;13.60;6.30;;;;;;;21.44;56.31;99379.13;225392;1251;140576;-68
2022/10/30 12:31:49;;;;;;;12.50;6.40;;;;;;;21.45;56.16;99376.21;226339;1237;140366;-65
2022/10/30 12:37:23;;;;;;;15.10;6.20;;;;;;;21.52;56.10;99371.67;225452;1246;140186;-64
2022/10/30 12:42:27;;;;;;;10.80;6.00;;;;;;;21.58;55.90;99375.71;226353;1238;139651;-65
2022/10/30 12:47:40;;;;;;;16.40;6.20;;;;;;;21.61;55.57;99374.18;226305;1240;139163;-63
2022/10/30 12:53:06;;;;;;;26.10;16.80;;;;;;;21.64;55.39;99367.60;225532;1247;139125;-63
2022/10/30 12:58:28;;;;;;;15.80;7.10;;;;;;;21.66;55.29;99367.73;225789;1234;140210;-67
2022/10/30 13:03:39;;;;;;;13.00;6.60;;;;;;;21.66;55.09;99364.33;226618;1237;139889;-67
2022/10/30 13:09:03;;;;;;;13.40;6.20;;;;;;;21.64;54.90;99359.60;225494;1247;139311;-67
2022/10/30 13:14:15;;;;;;;15.50;5.80;;;;;;;21.73;54.83;99352.16;225664;1246;139682;-65
2022/10/30 13:19:18;;;;;;;10.70;6.30;;;;;;;21.89;54.80;99350.69;225599;1239;139737;-64
2022/10/30 13:24:46;;;;;;;14.40;5.70;;;;;;;22.00;54.52;99341.77;225514;1245;139846;-67
2022/10/30 13:29:52;;;;;;;14.40;5.30;;;;;;;22.05;54.23;99340.33;225551;1247;140505;-64
2022/10/30 13:35:22;;;;;;;13.30;7.60;;;;;;;22.04;53.95;99342.85;225689;1245;140442;-64
2022/10/30 13:40:40;;;;;;;15.70;5.90;;;;;;;22.00;53.67;99343.77;226740;1236;141989;-70
2022/10/30 13:46:06;;;;;;;16.10;5.70;;;;;;;21.95;53.62;99347.86;225617;1230;139194;-75
2022/10/30 13:51:09;;;;;;;20.10;5.80;;;;;;;21.92;53.42;99350.94;226645;1236;139174;-71
2022/10/30 13:56:16;;;;;;;13.10;5.00;;;;;;;21.90;53.36;99346.95;226675;1236;139657;-71
2022/10/30 14:01:58;;;;;;;12.80;4.70;;;;;;;21.92;53.29;99339.92;225441;1238;139741;-64
2022/10/30 14:07:33;;;;;;;13.90;4.50;;;;;;;21.93;53.26;99335.04;225413;1245;139019;-70
2022/10/30 14:12:53;;;;;;;249.80;177.10;;;;;;;21.92;53.11;99333.67;225465;1239;139279;-67
2022/10/30 14:18:24;;;;;;;32.10;19.90;;;;;;;21.94;53.36;99339.84;225429;1247;140522;-67
2022/10/30 14:23:37;;;;;;;11.60;6.00;;;;;;;21.93;53.38;99343.20;226326;1236;140158;-67
2022/10/30 14:28:46;;;;;;;14.60;5.20;;;;;;;21.91;53.37;99341.45;225485;1246;139507;-70
2022/10/30 14:33:53;;;;;;;14.90;5.00;;;;;;;21.90;53.15;99340.44;226787;1237;141509;-74
2022/10/30 14:39:10;;;;;;;11.90;4.90;;;;;;;21.89;53.01;99339.65;225383;1248;140025;-75
2022/10/30 14:44:19;;;;;;;13.40;4.80;;;;;;;21.84;53.02;99335.54;225589;1235;139500;-67
2022/10/30 14:49:34;;;;;;;13.50;5.00;;;;;;;21.78;53.02;99328.55;225536;1237;139877;-73
2022/10/30 14:54:45;;;;;;;13.20;5.40;;;;;;;21.74;52.75;99322.66;225544;1241;140270;-72
2022/10/30 14:59:47;;;;;;;26.60;6.40;;;;;;;21.68;52.77;99320.16;226632;1234;139382;-71
2022/10/30 15:05:00;;;;;;;12.10;6.00;;;;;;;21.62;52.96;99319.77;225598;1237;139273;-68
2022/10/30 15:10:23;;;;;;;15.10;6.70;;;;;;;21.57;52.96;99314.86;226707;1237;141158;-68
2022/10/30 15:15:26;;;;;;;11.60;5.20;;;;;;;21.52;52.93;99313.56;225525;1244;139746;-70
2022/10/30 15:20:32;;;;;;;13.00;5.10;;;;;;;21.48;52.82;99314.63;226589;1237;139594;-72
2022/10/30 15:25:44;;;;;;;15.70;6.00;;;;;;;21.42;53.09;99321.05;226629;1236;139400;-69
2022/10/30 15:31:07;;;;;;;19.70;6.80;;;;;;;21.27;53.33;99322.26;225545;1229;139621;-64
2022/10/30 15:36:39;;;;;;;18.50;6.80;;;;;;;21.06;53.45;99325.59;226718;1236;139058;-70
2022/10/30 15:41:52;;;;;;;24.70;7.40;;;;;;;20.89;53.70;99324.10;225563;1239;139645;-69
2022/10/30 15:46:59;;;;;;;26.30;7.90;;;;;;;20.73;54.06;99323.81;225600;1244;139062;-68
2022/10/30 15:52:20;;;;;;;26.90;8.30;;;;;;;20.57;54.25;99323.89;226807;1237;139923;-66
2022/10/30 15:57:34;;;;;;;60.60;35.40;;;;;;;20.38;54.69;99324.09;225563;1245;140241;-67
2022/10/30 16:03:15;;;;;;;60.20;31.30;;;;;;;20.23;55.21;99326.27;225624;1243;140027;-66
2022/10/30 16:08:22;;;;;;;66.00;40.90;;;;;;;20.11;55.99;99324.54;226721;1230;139542;-65
2022/10/30 16:13:29;;;;;;;30.20;8.40;;;;;;;20.02;56.46;99326.62;226285;1238;139318;-66
2022/10/30 16:18:34;;;;;;;61.40;41.60;;;;;;;19.91;56.21;99327.71;226511;1243;139815;-67
2022/10/30 16:23:40;;;;;;;21.50;9.50;;;;;;;19.78;56.17;99325.60;225377;1239;139824;-64
2022/10/30 16:28:46;;;;;;;20.60;7.60;;;;;;;19.60;56.25;99328.49;225533;1251;138910;-66
2022/10/30 16:33:49;;;;;;;19.40;7.40;;;;;;;19.44;56.33;99328.57;225626;1239;139099;-65
2022/10/30 16:38:53;;;;;;;22.20;7.60;;;;;;;19.29;56.53;99328.91;225595;1247;139967;-69
2022/10/30 16:44:11;;;;;;;19.10;7.10;;;;;;;19.15;56.85;99326.27;225568;1240;139606;-66
2022/10/30 16:49:18;;;;;;;17.10;6.80;;;;;;;19.02;57.07;99325.88;225634;1242;139525;-67
2022/10/30 16:54:26;;;;;;;17.90;7.40;;;;;;;18.95;57.31;99325.08;226404;1231;140892;-65
2022/10/30 16:59:47;;;;;;;17.90;8.00;;;;;;;18.89;57.51;99327.20;225603;1245;139999;-66
2022/10/30 17:04:53;;;;;;;166.80;128.30;;;;;;;18.82;57.69;99330.17;225524;1246;139193;-66
2022/10/30 17:10:00;;;;;;;29.30;12.40;;;;;;;18.77;58.09;99333.55;226597;1230;140194;-64
2022/10/30 17:15:12;;;;;;;36.80;10.30;;;;;;;18.68;58.10;99337.91;225502;1245;140079;-67
2022/10/30 17:20:18;;;;;;;45.20;11.30;;;;;;;18.58;58.36;99336.84;225390;1243;139840;-66
2022/10/30 17:25:33;;;;;;;29.70;9.30;;;;;;;18.48;58.45;99338.85;225471;1250;140190;-67
2022/10/30 17:30:42;;;;;;;51.70;34.60;;;;;;;18.34;58.67;99340.77;226474;1234;139081;-66
2022/10/30 17:35:45;;;;;;;30.80;14.60;;;;;;;18.24;59.07;99336.36;225547;1248;140143;-70
2022/10/30 17:40:48;;;;;;;26.00;9.80;;;;;;;18.14;59.06;99339.88;225635;1250;139816;-68
2022/10/30 17:45:51;;;;;;;38.40;20.20;;;;;;;18.04;59.16;99340.23;225602;1245;138972;-67
2022/10/30 17:50:54;;;;;;;24.30;8.60;;;;;;;18.03;59.47;99343.19;225648;1236;140565;-63
2022/10/30 17:56:02;;;;;;;24.00;9.70;;;;;;;18.01;59.60;99343.16;226581;1237;139796;-66
2022/10/30 18:01:06;;;;;;;28.00;10.00;;;;;;;17.95;59.62;99342.83;226675;1237;139033;-63
2022/10/30 18:06:18;;;;;;;27.00;10.60;;;;;;;17.87;59.80;99346.55;225565;1244;141039;-67
2022/10/30 18:11:23;;;;;;;21.30;10.10;;;;;;;17.78;59.95;99347.92;226491;1237;139362;-65
2022/10/30 18:16:26;;;;;;;25.00;12.50;;;;;;;17.67;60.05;99348.77;225550;1245;139689;-66
2022/10/30 18:21:30;;;;;;;97.50;70.40;;;;;;;17.55;60.21;99347.93;226567;1230;139690;-65
2022/10/30 18:26:33;;;;;;;22.20;12.10;;;;;;;17.46;60.46;99343.48;226365;1237;139616;-65
2022/10/30 18:31:42;;;;;;;26.20;12.20;;;;;;;17.39;60.48;99347.63;225215;1251;140540;-66
2022/10/30 18:36:45;;;;;;;21.80;11.80;;;;;;;17.35;60.62;99350.13;225566;1243;140679;-65
2022/10/30 18:41:48;;;;;;;30.20;14.70;;;;;;;17.29;60.68;99348.89;225411;1244;140289;-64
2022/10/30 18:46:51;;;;;;;28.40;14.00;;;;;;;17.21;60.78;99350.98;225571;1247;139435;-63
2022/10/30 18:51:54;;;;;;;23.10;13.60;;;;;;;17.12;60.99;99346.89;225672;1237;141046;-68
2022/10/30 18:56:57;;;;;;;28.90;14.80;;;;;;;17.02;60.99;99346.63;225618;1234;139952;-66
2022/10/30 19:02:00;;;;;;;28.60;14.30;;;;;;;16.93;61.23;99347.27;225562;1243;140318;-63
2022/10/30 19:07:03;;;;;;;31.00;14.70;;;;;;;16.83;61.27;99350.04;226515;1227;139140;-64
2022/10/30 19:12:09;;;;;;;35.00;18.60;;;;;;;16.74;61.50;99347.05;225420;1245;143374;-62
2022/10/30 19:17:12;;;;;;;27.20;13.50;;;;;;;16.73;61.71;99349.02;225504;1240;140462;-63
2022/10/30 19:22:15;;;;;;;30.20;15.90;;;;;;;16.76;61.77;99348.95;225820;1242;139580;-65
2022/10/30 19:27:19;;;;;;;34.90;13.20;;;;;;;16.74;61.83;99348.38;225714;1245;140074;-67
2022/10/30 19:32:22;;;;;;;29.40;13.30;;;;;;;16.69;61.88;99346.11;225666;1245;139089;-67
2022/10/30 19:37:25;;;;;;;24.70;12.70;;;;;;;16.62;61.83;99353.01;225497;1244;140757;-68
2022/10/30 19:42:28;;;;;;;23.50;12.90;;;;;;;16.53;61.94;99348.20;225753;1250;140393;-71
2022/10/30 19:47:31;;;;;;;24.00;12.10;;;;;;;16.45;61.91;99349.02;225589;1237;139257;-66
2022/10/30 19:52:34;;;;;;;28.20;12.50;;;;;;;16.35;62.02;99349.81;225518;1240;139431;-70
2022/10/30 19:57:38;;;;;;;32.80;11.10;;;;;;;16.27;62.25;99350.98;225770;1245;140435;-66
2022/10/30 20:02:41;;;;;;;25.10;9.80;;;;;;;16.24;62.13;99347.65;225490;1245;140924;-71
2022/10/30 20:08:01;;;;;;;26.60;11.50;;;;;;;16.22;62.42;99348.16;225687;1237;139719;-71
2022/10/30 20:13:05;;;;;;;34.20;11.40;;;;;;;16.18;62.44;99347.95;225724;1242;139445;-72
2022/10/30 20:18:17;;;;;;;25.50;9.80;;;;;;;16.12;62.51;99351.84;225569;1248;139283;-75
2022/10/30 20:23:22;;;;;;;26.20;12.20;;;;;;;16.06;62.47;99355.20;225741;1244;139501;-70
2022/10/30 20:28:28;;;;;;;30.10;12.20;;;;;;;15.99;62.76;99356.48;225418;1248;139913;-71
2022/10/30 20:33:32;;;;;;;25.70;13.40;;;;;;;15.89;62.53;99354.93;226524;1230;139595;-71
2022/10/30 20:38:35;;;;;;;28.80;13.80;;;;;;;15.77;62.53;99356.02;225474;1248;139562;-70
2022/10/30 20:43:39;;;;;;;27.30;13.80;;;;;;;15.74;62.52;99360.43;226612;1237;140386;-68
2022/10/30 20:48:42;;;;;;;27.00;14.30;;;;;;;15.72;62.80;99362.20;225139;1248;140057;-68
2022/10/30 20:53:45;;;;;;;25.10;13.90;;;;;;;15.69;62.58;99358.49;226642;1238;139712;-68
2022/10/30 20:58:48;;;;;;;22.80;13.70;;;;;;;15.64;62.85;99356.14;225617;1242;139881;-70
2022/10/30 21:03:51;;;;;;;20.10;13.10;;;;;;;15.57;62.93;99357.90;225889;1245;139913;-67
2022/10/30 21:08:59;;;;;;;26.00;13.60;;;;;;;15.53;63.13;99361.84;225405;1246;139482;-67
2022/10/30 21:14:03;;;;;;;28.90;13.70;;;;;;;15.42;62.83;99358.92;224943;1240;139614;-66
2022/10/30 21:19:08;;;;;;;;;;;;;;;15.31;62.80;99359.78;225514;1246;139595;-66
2022/10/30 21:24:11;;;;;;;26.40;12.60;;;;;;;15.25;63.02;99358.75;226778;1238;126647;-66
2022/10/30 21:29:14;;;;;;;26.10;13.60;;;;;;;15.23;63.31;99354.83;226696;1243;139591;-65
2022/10/30 21:34:17;;;;;;;27.30;13.90;;;;;;;15.23;63.33;99359.11;226824;1237;139845;-65
2022/10/30 21:39:20;;;;;;;31.30;13.80;;;;;;;15.26;63.81;99354.56;225773;1245;139181;-65
2022/10/30 21:44:23;;;;;;;24.30;13.70;;;;;;;15.38;63.94;99353.86;225718;1245;139903;-66
2022/10/30 21:49:26;;;;;;;23.00;13.10;;;;;;;15.36;63.62;99354.57;225607;1247;139985;-66
2022/10/30 21:54:28;;;;;;;27.50;14.50;;;;;;;15.29;63.44;99355.09;225526;1241;139969;-64
2022/10/30 21:59:32;;;;;;;26.40;14.60;;;;;;;15.20;63.32;99359.37;225468;1237;139542;-65
2022/10/30 22:04:35;;;;;;;23.40;14.70;;;;;;;15.16;63.29;99363.60;226682;1234;141982;-66
2022/10/30 22:09:37;;;;;;;26.10;15.10;;;;;;;15.15;63.29;99362.27;225686;1246;139512;-69
2022/10/30 22:14:40;;;;;;;30.20;16.00;;;;;;;15.12;63.49;99361.77;225548;1244;139239;-67
2022/10/30 22:19:43;;;;;;;27.30;15.10;;;;;;;15.09;63.40;99370.00;225535;1248;139333;-67
2022/10/30 22:24:46;;;;;;;24.50;14.90;;;;;;;15.05;63.46;99368.14;226674;1244;139432;-67
2022/10/30 22:29:49;;;;;;;25.90;15.30;;;;;;;14.99;63.47;99372.38;226654;1234;139831;-66
2022/10/30 22:34:52;;;;;;;26.70;15.10;;;;;;;14.91;63.44;99368.84;226460;1235;139533;-67
2022/10/30 22:39:55;;;;;;;24.70;14.60;;;;;;;14.85;63.47;99371.80;225780;1244;139400;-67
2022/10/30 22:44:58;;;;;;;24.40;14.80;;;;;;;14.84;63.59;99369.89;226658;1237;140473;-67
2022/10/30 22:50:01;;;;;;;22.90;14.70;;;;;;;14.84;63.63;99370.45;226327;1237;140182;-67
2022/10/30 22:55:04;;;;;;;26.50;14.30;;;;;;;14.82;63.74;99366.31;225638;1245;140361;-67
2022/10/30 23:00:08;;;;;;;26.20;15.10;;;;;;;14.78;63.69;99360.03;225724;1241;139607;-67
2022/10/30 23:05:11;;;;;;;29.10;14.80;;;;;;;14.72;63.75;99358.66;225654;1250;139263;-69
2022/10/30 23:10:17;;;;;;;26.40;15.20;;;;;;;14.69;63.70;99357.64;225611;1248;139972;-67
2022/10/30 23:15:20;;;;;;;25.30;14.60;;;;;;;14.59;63.59;99359.80;225649;1241;139458;-67